createdAt,value
2017-06-21T00:00:36.576Z,1018.40
2017-06-21T00:01:38.452Z,1018.41
2017-06-21T00:02:40.320Z,1018.50
2017-06-21T00:03:42.201Z,1018.46
2017-06-21T00:04:56.343Z,1018.47
2017-06-21T00:05:58.210Z,1018.48
2017-06-21T00:07:00.093Z,1018.48
2017-06-21T00:08:01.954Z,1018.50
2017-06-21T00:09:03.751Z,1018.49
2017-06-21T00:10:05.553Z,1018.51
2017-06-21T00:11:07.418Z,1018.50
2017-06-21T00:12:09.281Z,1018.53
2017-06-21T00:13:11.170Z,1018.52
2017-06-21T00:14:25.324Z,1018.53
2017-06-21T00:15:27.183Z,1018.56
2017-06-21T00:16:29.053Z,1018.57
2017-06-21T00:17:30.933Z,1018.60
2017-06-21T00:18:32.757Z,1018.60
2017-06-21T00:19:34.554Z,1018.60
2017-06-21T00:20:36.416Z,1018.62
2017-06-21T00:21:38.278Z,1018.59
2017-06-21T00:22:40.143Z,1018.59
2017-06-21T00:23:54.295Z,1018.58
2017-06-21T00:24:56.157Z,1018.64
2017-06-21T00:25:58.027Z,1018.63
2017-06-21T00:26:59.911Z,1018.61
2017-06-21T00:28:01.728Z,1018.60
2017-06-21T00:29:03.533Z,1018.63
2017-06-21T00:30:05.416Z,1018.63
2017-06-21T00:31:07.281Z,1018.69
2017-06-21T00:32:09.144Z,1018.67
2017-06-21T00:33:23.291Z,1018.65
2017-06-21T00:34:25.160Z,1018.65
2017-06-21T00:35:27.019Z,1018.61
2017-06-21T00:36:28.885Z,1018.66
2017-06-21T00:37:30.687Z,1018.64
2017-06-21T00:38:32.510Z,1018.64
2017-06-21T00:39:34.394Z,1018.69
2017-06-21T00:40:36.278Z,1018.64
2017-06-21T00:41:38.157Z,1018.61
2017-06-21T00:42:52.343Z,1018.65
2017-06-21T00:43:54.203Z,1018.65
2017-06-21T00:44:56.066Z,1018.67
2017-06-21T00:45:57.926Z,1018.63
2017-06-21T00:46:59.729Z,1018.67
2017-06-21T00:48:01.527Z,1018.65
2017-06-21T00:49:03.418Z,1018.66
2017-06-21T00:50:05.301Z,1018.66
2017-06-21T00:51:07.185Z,1018.64
2017-06-21T00:52:21.370Z,1018.66
2017-06-21T00:53:23.255Z,1018.68
2017-06-21T00:54:25.118Z,1018.62
2017-06-21T00:55:27.006Z,1018.64
2017-06-21T00:56:28.824Z,1018.70
2017-06-21T00:57:30.625Z,1018.70
2017-06-21T00:58:32.509Z,1018.65
2017-06-21T00:59:34.395Z,1018.62
2017-06-21T01:00:36.272Z,1018.61
2017-06-21T01:01:50.460Z,1018.61
2017-06-21T01:02:52.336Z,1018.62
2017-06-21T01:03:54.198Z,1018.59
2017-06-21T01:04:56.059Z,1018.59
2017-06-21T01:05:57.857Z,1018.56
2017-06-21T01:06:59.679Z,1018.56
2017-06-21T01:08:01.535Z,1018.53
2017-06-21T01:09:03.399Z,1018.60
2017-06-21T01:10:05.259Z,1018.58
2017-06-21T01:11:19.416Z,1018.64
2017-06-21T01:12:21.297Z,1018.57
2017-06-21T01:13:23.163Z,1018.57
2017-06-21T01:14:25.050Z,1018.55
2017-06-21T01:15:26.871Z,1018.59
2017-06-21T01:16:28.671Z,1018.58
2017-06-21T01:17:30.551Z,1018.63
2017-06-21T01:18:32.426Z,1018.62
2017-06-21T01:19:34.305Z,1018.61
2017-06-21T01:20:48.446Z,1018.63
2017-06-21T01:21:50.329Z,1018.55
2017-06-21T01:22:52.211Z,1018.61
2017-06-21T01:23:54.077Z,1018.58
2017-06-21T01:24:55.894Z,1018.59
2017-06-21T01:27:15.367Z,1018.61
2017-06-21T01:28:17.229Z,1018.58
2017-06-21T01:29:19.090Z,1018.62
2017-06-21T01:30:33.216Z,1018.60
2017-06-21T01:31:35.084Z,1018.57
2017-06-21T01:32:36.941Z,1018.58
2017-06-21T01:33:38.817Z,1018.55
2017-06-21T01:34:40.627Z,1018.62
2017-06-21T01:35:42.446Z,1018.56
2017-06-21T01:36:44.304Z,1018.56
2017-06-21T01:37:46.165Z,1018.57
2017-06-21T01:38:48.046Z,1018.61
2017-06-21T01:40:02.196Z,1018.59
2017-06-21T01:41:04.060Z,1018.62
2017-06-21T01:42:05.944Z,1018.63
2017-06-21T01:43:07.825Z,1018.57
2017-06-21T01:44:09.642Z,1018.56
2017-06-21T01:45:11.446Z,1018.62
2017-06-21T01:46:13.305Z,1018.57
2017-06-21T01:47:15.162Z,1018.58
2017-06-21T01:48:16.985Z,1018.62
2017-06-21T01:49:31.126Z,1018.60
2017-06-21T01:50:32.995Z,1018.62
2017-06-21T01:51:34.860Z,1018.61
2017-06-21T01:52:36.736Z,1018.63
2017-06-21T01:53:38.540Z,1018.62
2017-06-21T01:54:40.341Z,1018.62
2017-06-21T01:55:42.228Z,1018.61
2017-06-21T01:56:44.106Z,1018.60
2017-06-21T01:57:45.969Z,1018.63
2017-06-21T01:59:00.154Z,1018.60
2017-06-21T02:00:02.031Z,1018.61
2017-06-21T02:01:03.888Z,1018.59
2017-06-21T02:02:05.748Z,1018.64
2017-06-21T02:03:07.564Z,1018.64
2017-06-21T02:04:09.368Z,1018.65
2017-06-21T02:05:11.251Z,1018.65
2017-06-21T02:06:13.134Z,1018.68
2017-06-21T02:07:15.014Z,1018.69
2017-06-21T02:08:29.170Z,1018.68
2017-06-21T02:09:31.032Z,1018.72
2017-06-21T02:10:32.916Z,1018.75
2017-06-21T02:11:34.798Z,1018.78
2017-06-21T02:12:36.618Z,1018.70
2017-06-21T02:13:38.421Z,1018.72
2017-06-21T02:14:40.299Z,1018.77
2017-06-21T02:15:42.162Z,1018.76
2017-06-21T02:16:44.043Z,1018.77
2017-06-21T02:17:58.246Z,1018.75
2017-06-21T02:19:00.109Z,1018.84
2017-06-21T02:20:02.019Z,1018.80
2017-06-21T02:21:03.847Z,1018.77
2017-06-21T02:22:05.651Z,1018.78
2017-06-21T02:23:07.469Z,1018.80
2017-06-21T02:24:09.329Z,1018.80
2017-06-21T02:25:11.192Z,1018.75
2017-06-21T02:26:13.054Z,1018.76
2017-06-21T02:27:27.178Z,1018.77
2017-06-21T02:28:29.040Z,1018.74
2017-06-21T02:29:30.902Z,1018.75
2017-06-21T02:30:32.787Z,1018.73
2017-06-21T02:31:34.610Z,1018.77
2017-06-21T02:32:36.435Z,1018.73
2017-06-21T02:33:38.315Z,1018.71
2017-06-21T02:34:40.162Z,1018.73
2017-06-21T02:35:41.984Z,1018.73
2017-06-21T02:36:56.137Z,1018.76
2017-06-21T02:37:58.000Z,1018.80
2017-06-21T02:38:59.885Z,1018.78
2017-06-21T02:40:01.766Z,1018.76
2017-06-21T02:41:03.859Z,1018.74
2017-06-21T02:42:05.675Z,1018.73
2017-06-21T02:43:07.552Z,1018.69
2017-06-21T02:44:09.432Z,1018.68
2017-06-21T02:45:11.301Z,1018.72
2017-06-21T02:46:25.502Z,1018.68
2017-06-21T02:47:27.384Z,1018.69
2017-06-21T02:48:29.262Z,1018.66
2017-06-21T02:49:31.135Z,1018.65
2017-06-21T02:50:32.937Z,1018.67
2017-06-21T02:51:34.742Z,1018.71
2017-06-21T02:52:36.624Z,1018.70
2017-06-21T02:53:38.510Z,1018.70
2017-06-21T02:54:40.395Z,1018.73
2017-06-21T02:55:54.545Z,1018.72
2017-06-21T02:56:56.416Z,1018.75
2017-06-21T02:57:58.300Z,1018.78
2017-06-21T02:59:00.167Z,1018.76
2017-06-21T03:00:01.993Z,1018.73
2017-06-21T03:01:03.817Z,1018.76
2017-06-21T03:02:05.700Z,1018.73
2017-06-21T03:03:07.564Z,1018.79
2017-06-21T03:04:09.433Z,1018.79
2017-06-21T03:05:23.588Z,1018.76
2017-06-21T03:06:25.456Z,1018.81
2017-06-21T03:07:27.315Z,1018.81
2017-06-21T03:08:29.181Z,1018.82
2017-06-21T03:09:30.987Z,1018.81
2017-06-21T03:10:32.793Z,1018.82
2017-06-21T03:11:34.677Z,1018.85
2017-06-21T03:12:36.540Z,1018.86
2017-06-21T03:13:38.406Z,1018.84
2017-06-21T03:14:52.545Z,1018.83
2017-06-21T03:15:54.421Z,1018.83
2017-06-21T03:16:56.285Z,1018.85
2017-06-21T03:17:58.145Z,1018.87
2017-06-21T03:18:59.954Z,1018.86
2017-06-21T03:20:01.780Z,1018.89
2017-06-21T03:21:03.661Z,1018.90
2017-06-21T03:22:05.529Z,1018.93
2017-06-21T03:23:07.410Z,1018.98
2017-06-21T03:24:21.544Z,1018.99
2017-06-21T03:25:23.410Z,1018.97
2017-06-21T03:26:25.282Z,1018.99
2017-06-21T03:27:27.163Z,1019.04
2017-06-21T03:28:28.973Z,1019.01
2017-06-21T03:29:30.781Z,1019.07
2017-06-21T03:30:32.668Z,1019.10
2017-06-21T03:31:34.561Z,1019.13
2017-06-21T03:32:36.447Z,1019.17
2017-06-21T03:33:50.610Z,1019.14
2017-06-21T03:34:52.491Z,1019.15
2017-06-21T03:35:54.353Z,1019.16
2017-06-21T03:36:56.252Z,1019.18
2017-06-21T03:37:58.081Z,1019.24
2017-06-21T03:38:59.914Z,1019.26
2017-06-21T03:40:01.799Z,1019.26
2017-06-21T03:41:03.682Z,1019.23
2017-06-21T03:42:05.556Z,1019.24
2017-06-21T03:43:19.715Z,1019.22
2017-06-21T03:44:21.580Z,1019.24
2017-06-21T03:45:23.469Z,1019.25
2017-06-21T03:46:25.359Z,1019.25
2017-06-21T03:47:27.170Z,1019.29
2017-06-21T03:48:28.999Z,1019.23
2017-06-21T03:49:30.883Z,1019.22
2017-06-21T03:50:32.755Z,1019.28
2017-06-21T03:51:34.644Z,1019.31
2017-06-21T03:52:48.805Z,1019.32
2017-06-21T03:53:50.677Z,1019.30
2017-06-21T03:54:52.539Z,1019.33
2017-06-21T03:55:54.413Z,1019.39
2017-06-21T03:56:56.247Z,1019.34
2017-06-21T03:57:58.073Z,1019.35
2017-06-21T03:58:59.939Z,1019.39
2017-06-21T04:00:01.813Z,1019.40
2017-06-21T04:01:03.676Z,1019.43
2017-06-21T04:02:17.824Z,1019.47
2017-06-21T04:03:19.709Z,1019.49
2017-06-21T04:04:21.583Z,1019.50
2017-06-21T04:05:23.479Z,1019.45
2017-06-21T04:06:25.314Z,1019.47
2017-06-21T04:07:27.148Z,1019.48
2017-06-21T04:08:29.041Z,1019.47
2017-06-21T04:09:30.929Z,1019.50
2017-06-21T04:10:32.806Z,1019.48
2017-06-21T04:11:46.968Z,1019.55
2017-06-21T04:12:48.838Z,1019.59
2017-06-21T04:13:50.703Z,1019.62
2017-06-21T04:14:52.582Z,1019.61
2017-06-21T04:15:54.417Z,1019.65
2017-06-21T04:16:56.242Z,1019.64
2017-06-21T04:17:58.113Z,1019.63
2017-06-21T04:18:59.985Z,1019.56
2017-06-21T04:20:01.872Z,1019.58
2017-06-21T04:21:16.044Z,1019.58
2017-06-21T04:22:17.937Z,1019.60
2017-06-21T04:23:19.825Z,1019.64
2017-06-21T04:24:21.699Z,1019.65
2017-06-21T04:25:23.535Z,1019.71
2017-06-21T04:26:25.361Z,1019.73
2017-06-21T04:27:27.236Z,1019.75
2017-06-21T04:28:29.133Z,1019.69
2017-06-21T04:29:30.998Z,1019.67
2017-06-21T04:30:45.146Z,1019.67
2017-06-21T04:31:47.030Z,1019.63
2017-06-21T04:32:48.907Z,1019.62
2017-06-21T04:33:50.798Z,1019.61
2017-06-21T04:34:52.608Z,1019.66
2017-06-21T04:35:54.422Z,1019.66
2017-06-21T04:36:56.289Z,1019.67
2017-06-21T04:37:58.163Z,1019.70
2017-06-21T04:39:00.041Z,1019.72
2017-06-21T04:40:14.210Z,1019.72
2017-06-21T04:41:16.105Z,1019.74
2017-06-21T04:42:17.994Z,1019.74
2017-06-21T04:43:19.872Z,1019.76
2017-06-21T04:44:21.707Z,1019.74
2017-06-21T04:45:23.542Z,1019.71
2017-06-21T04:46:25.440Z,1019.72
2017-06-21T04:47:27.334Z,1019.72
2017-06-21T04:48:29.208Z,1019.65
2017-06-21T04:49:43.401Z,1019.80
2017-06-21T04:50:45.211Z,1019.90
2017-06-21T04:51:47.024Z,1019.88
2017-06-21T04:52:48.836Z,1019.90
2017-06-21T04:53:50.674Z,1019.94
2017-06-21T04:54:52.541Z,1019.97
2017-06-21T04:55:54.413Z,1020.00
2017-06-21T04:56:56.244Z,1020.03
2017-06-21T04:57:58.078Z,1020.05
2017-06-21T04:59:12.246Z,1020.08
2017-06-21T05:00:14.120Z,1020.06
2017-06-21T05:01:16.015Z,1020.07
2017-06-21T05:02:17.880Z,1020.06
2017-06-21T05:03:19.701Z,1020.10
2017-06-21T05:04:21.535Z,1020.09
2017-06-21T05:05:23.402Z,1020.08
2017-06-21T05:06:25.297Z,1020.09
2017-06-21T05:07:27.165Z,1020.03
2017-06-21T05:08:41.314Z,1020.00
2017-06-21T05:09:43.182Z,1019.99
2017-06-21T05:10:45.057Z,1019.98
2017-06-21T05:11:46.933Z,1019.99
2017-06-21T05:12:48.767Z,1019.99
2017-06-21T05:13:50.594Z,1019.95
2017-06-21T05:14:52.466Z,1019.95
2017-06-21T05:15:54.355Z,1019.92
2017-06-21T05:16:56.252Z,1019.98
2017-06-21T05:18:10.415Z,1019.98
2017-06-21T05:19:12.286Z,1019.95
2017-06-21T05:20:14.178Z,1019.94
2017-06-21T05:21:16.067Z,1019.98
2017-06-21T05:22:17.885Z,1019.92
2017-06-21T05:23:19.713Z,1019.89
2017-06-21T05:24:21.582Z,1019.93
2017-06-21T05:25:23.455Z,1019.93
2017-06-21T05:26:25.349Z,1019.84
2017-06-21T05:27:39.513Z,1019.71
2017-06-21T05:28:41.375Z,1019.67
2017-06-21T05:29:43.253Z,1019.65
2017-06-21T05:30:45.142Z,1019.63
2017-06-21T05:31:46.953Z,1019.64
2017-06-21T05:32:48.763Z,1019.63
2017-06-21T05:33:50.657Z,1019.59
2017-06-21T05:34:52.548Z,1019.60
2017-06-21T05:35:54.442Z,1019.61
2017-06-21T05:37:08.605Z,1019.60
2017-06-21T05:38:10.495Z,1019.61
2017-06-21T05:39:12.386Z,1019.66
2017-06-21T05:40:14.258Z,1019.64
2017-06-21T05:41:16.092Z,1019.65
2017-06-21T05:42:17.917Z,1019.67
2017-06-21T05:43:19.785Z,1019.67
2017-06-21T05:44:21.674Z,1019.68
2017-06-21T05:45:23.537Z,1019.71
2017-06-21T05:46:37.682Z,1019.71
2017-06-21T05:47:39.573Z,1019.73
2017-06-21T05:48:41.467Z,1019.76
2017-06-21T05:49:43.347Z,1019.71
2017-06-21T05:50:45.160Z,1019.76
2017-06-21T05:51:46.965Z,1019.71
2017-06-21T05:52:48.834Z,1019.74
2017-06-21T05:53:50.703Z,1019.74
2017-06-21T05:54:52.589Z,1019.75
2017-06-21T05:56:06.735Z,1019.76
2017-06-21T05:57:08.625Z,1019.71
2017-06-21T05:58:10.514Z,1019.69
2017-06-21T05:59:12.380Z,1019.69
2017-06-21T06:00:14.189Z,1019.66
2017-06-21T06:01:15.998Z,1019.67
2017-06-21T06:02:17.841Z,1019.70
2017-06-21T06:03:19.656Z,1019.68
2017-06-21T06:04:21.482Z,1019.67
2017-06-21T06:05:35.625Z,1019.65
2017-06-21T06:06:37.508Z,1019.63
2017-06-21T06:07:39.373Z,1019.62
2017-06-21T06:08:41.265Z,1019.62
2017-06-21T06:09:43.094Z,1019.62
2017-06-21T06:10:44.904Z,1019.63
2017-06-21T06:11:46.789Z,1019.66
2017-06-21T06:12:48.656Z,1019.68
2017-06-21T06:13:50.531Z,1019.70
2017-06-21T06:15:04.690Z,1019.69
2017-06-21T06:16:06.577Z,1019.73
2017-06-21T06:17:08.441Z,1019.64
2017-06-21T06:18:10.308Z,1019.67
2017-06-21T06:19:12.139Z,1019.68
2017-06-21T06:20:13.942Z,1019.66
2017-06-21T06:21:15.834Z,1019.62
2017-06-21T06:22:17.723Z,1019.66
2017-06-21T06:23:19.585Z,1019.66
2017-06-21T06:24:33.729Z,1019.70
2017-06-21T06:25:35.618Z,1019.67
2017-06-21T06:26:37.485Z,1019.66
2017-06-21T06:27:39.374Z,1019.67
2017-06-21T06:28:41.183Z,1019.66
2017-06-21T06:29:42.990Z,1019.67
2017-06-21T06:30:44.880Z,1019.66
2017-06-21T06:31:46.767Z,1019.65
2017-06-21T06:32:48.637Z,1019.66
2017-06-21T06:34:02.797Z,1019.62
2017-06-21T06:35:04.681Z,1019.58
2017-06-21T06:36:06.541Z,1019.55
2017-06-21T06:37:08.412Z,1019.54
2017-06-21T06:38:10.224Z,1019.60
2017-06-21T06:39:12.044Z,1019.60
2017-06-21T06:40:13.913Z,1019.59
2017-06-21T06:41:15.803Z,1019.63
2017-06-21T06:42:17.688Z,1019.67
2017-06-21T06:43:31.831Z,1019.67
2017-06-21T06:44:33.696Z,1019.66
2017-06-21T06:45:35.559Z,1019.65
2017-06-21T06:46:37.428Z,1019.66
2017-06-21T06:47:39.238Z,1019.68
2017-06-21T06:48:41.043Z,1019.64
2017-06-21T06:49:42.915Z,1019.65
2017-06-21T06:50:44.805Z,1019.68
2017-06-21T06:51:46.692Z,1019.65
2017-06-21T06:53:00.850Z,1019.67
2017-06-21T06:54:02.718Z,1019.69
2017-06-21T06:55:04.626Z,1019.70
2017-06-21T06:56:06.494Z,1019.71
2017-06-21T06:57:08.324Z,1019.72
2017-06-21T06:58:10.152Z,1019.74
2017-06-21T06:59:12.039Z,1019.77
2017-06-21T07:00:13.929Z,1019.73
2017-06-21T07:01:15.811Z,1019.78
2017-06-21T07:02:29.950Z,1019.73
2017-06-21T07:03:31.822Z,1019.73
2017-06-21T07:04:33.705Z,1019.71
2017-06-21T07:05:35.575Z,1019.71
2017-06-21T07:06:37.403Z,1019.75
2017-06-21T07:07:39.215Z,1019.73
2017-06-21T07:08:41.074Z,1019.74
2017-06-21T07:09:42.945Z,1019.74
2017-06-21T07:10:44.829Z,1019.74
2017-06-21T07:11:58.970Z,1019.73
2017-06-21T07:13:00.836Z,1019.73
2017-06-21T07:14:02.702Z,1019.74
2017-06-21T07:15:04.569Z,1019.73
2017-06-21T07:16:06.375Z,1019.73
2017-06-21T07:17:08.177Z,1019.71
2017-06-21T07:18:10.048Z,1019.77
2017-06-21T07:19:11.918Z,1019.76
2017-06-21T07:20:13.809Z,1019.76
2017-06-21T07:21:27.967Z,1019.74
2017-06-21T07:22:29.838Z,1019.71
2017-06-21T07:23:31.724Z,1019.78
2017-06-21T07:24:33.612Z,1019.78
2017-06-21T07:25:35.422Z,1019.75
2017-06-21T07:26:37.229Z,1019.73
2017-06-21T07:27:39.118Z,1019.77
2017-06-21T07:28:41.005Z,1019.72
2017-06-21T07:29:42.869Z,1019.74
2017-06-21T07:30:57.009Z,1019.69
2017-06-21T07:31:58.878Z,1019.70
2017-06-21T07:33:00.766Z,1019.72
2017-06-21T07:34:02.655Z,1019.73
2017-06-21T07:35:04.488Z,1019.71
2017-06-21T07:36:06.286Z,1019.72
2017-06-21T07:37:08.159Z,1019.73
2017-06-21T07:38:10.022Z,1019.71
2017-06-21T07:39:11.890Z,1019.72
2017-06-21T07:40:26.051Z,1019.68
2017-06-21T07:41:27.941Z,1019.72
2017-06-21T07:42:29.825Z,1019.70
2017-06-21T07:43:31.695Z,1019.72
2017-06-21T07:44:33.523Z,1019.70
2017-06-21T07:45:35.330Z,1019.71
2017-06-21T07:46:37.216Z,1019.66
2017-06-21T07:47:39.086Z,1019.65
2017-06-21T07:48:40.950Z,1019.64
2017-06-21T07:49:55.087Z,1019.62
2017-06-21T07:50:56.957Z,1019.60
2017-06-21T07:51:58.844Z,1019.62
2017-06-21T07:53:00.737Z,1019.66
2017-06-21T07:54:02.568Z,1019.67
2017-06-21T07:55:04.396Z,1019.65
2017-06-21T07:56:06.221Z,1019.66
2017-06-21T07:57:08.048Z,1019.66
2017-06-21T07:58:09.856Z,1019.63
2017-06-21T07:59:23.998Z,1019.66
2017-06-21T08:00:25.863Z,1019.63
2017-06-21T08:01:27.753Z,1019.69
2017-06-21T08:02:29.636Z,1019.67
2017-06-21T08:03:31.451Z,1019.63
2017-06-21T08:04:33.273Z,1019.64
2017-06-21T08:05:35.143Z,1019.68
2017-06-21T08:06:37.035Z,1019.66
2017-06-21T08:07:38.921Z,1019.63
2017-06-21T08:08:53.076Z,1019.66
2017-06-21T08:09:54.943Z,1019.67
2017-06-21T08:10:56.829Z,1019.68
2017-06-21T08:11:58.702Z,1019.66
2017-06-21T08:13:00.529Z,1019.66
2017-06-21T08:14:02.338Z,1019.61
2017-06-21T08:15:04.229Z,1019.60
2017-06-21T08:16:06.117Z,1019.59
2017-06-21T08:17:08.003Z,1019.61
2017-06-21T08:18:22.159Z,1019.65
2017-06-21T08:19:24.028Z,1019.66
2017-06-21T08:20:25.894Z,1019.63
2017-06-21T08:21:27.764Z,1019.63
2017-06-21T08:22:29.575Z,1019.64
2017-06-21T08:23:31.400Z,1019.67
2017-06-21T08:24:33.294Z,1019.62
2017-06-21T08:25:35.184Z,1019.59
2017-06-21T08:26:37.074Z,1019.60
2017-06-21T08:27:51.233Z,1019.60
2017-06-21T08:28:53.120Z,1019.62
2017-06-21T08:29:55.005Z,1019.64
2017-06-21T08:30:56.879Z,1019.56
2017-06-21T08:31:58.707Z,1019.62
2017-06-21T08:33:00.506Z,1019.62
2017-06-21T08:34:02.374Z,1019.63
2017-06-21T08:35:04.241Z,1019.64
2017-06-21T08:36:06.108Z,1019.65
2017-06-21T08:37:20.273Z,1019.56
2017-06-21T08:38:22.157Z,1019.60
2017-06-21T08:39:24.050Z,1019.56
2017-06-21T08:40:25.937Z,1019.53
2017-06-21T08:41:27.768Z,1019.54
2017-06-21T08:42:29.590Z,1019.57
2017-06-21T08:43:31.458Z,1019.57
2017-06-21T08:44:33.344Z,1019.52
2017-06-21T08:45:35.215Z,1019.51
2017-06-21T08:46:49.423Z,1019.53
2017-06-21T08:47:51.291Z,1019.55
2017-06-21T08:48:53.176Z,1019.53
2017-06-21T08:49:55.046Z,1019.56
2017-06-21T08:50:56.853Z,1019.50
2017-06-21T08:51:58.683Z,1019.61
2017-06-21T08:53:00.567Z,1019.55
2017-06-21T08:54:02.457Z,1019.53
2017-06-21T08:55:04.325Z,1019.51
2017-06-21T08:56:18.474Z,1019.48
2017-06-21T08:57:20.341Z,1019.50
2017-06-21T08:58:22.210Z,1019.50
2017-06-21T08:59:24.097Z,1019.49
2017-06-21T09:00:25.924Z,1019.48
2017-06-21T09:01:27.734Z,1019.47
2017-06-21T09:02:29.617Z,1019.47
2017-06-21T09:03:31.484Z,1019.43
2017-06-21T09:04:33.353Z,1019.36
2017-06-21T09:05:47.493Z,1019.35
2017-06-21T09:06:49.358Z,1019.44
2017-06-21T09:07:51.246Z,1019.41
2017-06-21T09:08:53.121Z,1019.38
2017-06-21T09:09:54.947Z,1019.45
2017-06-21T09:10:56.777Z,1019.42
2017-06-21T09:11:58.662Z,1019.42
2017-06-21T09:13:00.530Z,1019.37
2017-06-21T09:14:02.401Z,1019.35
2017-06-21T09:15:16.555Z,1019.35
2017-06-21T09:16:18.426Z,1019.35
2017-06-21T09:17:20.310Z,1019.35
2017-06-21T09:18:22.173Z,1019.40
2017-06-21T09:19:23.986Z,1019.41
2017-06-21T09:20:25.809Z,1019.36
2017-06-21T09:21:27.680Z,1019.37
2017-06-21T09:22:29.545Z,1019.36
2017-06-21T09:23:31.419Z,1019.35
2017-06-21T09:24:45.580Z,1019.38
2017-06-21T09:25:47.460Z,1019.35
2017-06-21T09:26:49.332Z,1019.35
2017-06-21T09:27:51.221Z,1019.35
2017-06-21T09:28:53.026Z,1019.30
2017-06-21T09:29:54.835Z,1019.30
2017-06-21T09:30:56.703Z,1019.30
2017-06-21T09:31:58.575Z,1019.34
2017-06-21T09:33:00.461Z,1019.36
2017-06-21T09:34:14.624Z,1019.33
2017-06-21T09:35:16.514Z,1019.33
2017-06-21T09:36:18.399Z,1019.34
2017-06-21T09:37:20.273Z,1019.34
2017-06-21T09:38:22.102Z,1019.37
2017-06-21T09:39:23.932Z,1019.36
2017-06-21T09:40:25.822Z,1019.35
2017-06-21T09:41:27.685Z,1019.32
2017-06-21T09:42:29.549Z,1019.32
2017-06-21T09:43:43.693Z,1019.36
2017-06-21T09:44:45.578Z,1019.27
2017-06-21T09:45:47.469Z,1019.28
2017-06-21T09:46:49.357Z,1019.29
2017-06-21T09:47:51.196Z,1019.32
2017-06-21T09:48:53.015Z,1019.27
2017-06-21T09:49:54.903Z,1019.31
2017-06-21T09:50:56.788Z,1019.32
2017-06-21T09:51:58.656Z,1019.27
2017-06-21T09:53:12.820Z,1019.29
2017-06-21T09:54:14.683Z,1019.33
2017-06-21T09:55:16.552Z,1019.32
2017-06-21T09:56:18.421Z,1019.28
2017-06-21T09:57:20.231Z,1019.41
2017-06-21T09:58:22.037Z,1019.35
2017-06-21T09:59:23.927Z,1019.35
2017-06-21T10:00:25.793Z,1019.23
2017-06-21T10:01:27.663Z,1019.22
2017-06-21T10:02:41.826Z,1019.24
2017-06-21T10:03:43.712Z,1019.22
2017-06-21T10:04:45.598Z,1019.20
2017-06-21T10:05:47.467Z,1019.16
2017-06-21T10:06:49.281Z,1019.19
2017-06-21T10:07:51.100Z,1019.21
2017-06-21T10:08:52.964Z,1019.28
2017-06-21T10:09:54.836Z,1019.35
2017-06-21T10:10:56.722Z,1019.29
2017-06-21T10:12:10.869Z,1019.23
2017-06-21T10:13:12.751Z,1019.20
2017-06-21T10:14:14.621Z,1019.22
2017-06-21T10:15:16.513Z,1019.19
2017-06-21T10:16:18.341Z,1019.16
2017-06-21T10:17:20.143Z,1019.14
2017-06-21T10:18:22.035Z,1019.19
2017-06-21T10:19:23.924Z,1019.15
2017-06-21T10:20:25.785Z,1019.18
2017-06-21T10:21:39.928Z,1019.15
2017-06-21T10:22:41.813Z,1019.21
2017-06-21T10:23:43.703Z,1019.12
2017-06-21T10:24:45.590Z,1019.14
2017-06-21T10:25:47.420Z,1019.27
2017-06-21T10:26:49.243Z,1019.25
2017-06-21T10:27:51.115Z,1019.14
2017-06-21T10:28:53.005Z,1019.19
2017-06-21T10:29:54.871Z,1019.20
2017-06-21T10:31:09.061Z,1019.14
2017-06-21T10:32:10.924Z,1019.15
2017-06-21T10:33:12.792Z,1019.11
2017-06-21T10:34:14.660Z,1019.12
2017-06-21T10:35:16.489Z,1019.17
2017-06-21T10:36:18.314Z,1019.16
2017-06-21T10:37:20.176Z,1019.12
2017-06-21T10:38:22.050Z,1019.11
2017-06-21T10:39:23.921Z,1019.10
2017-06-21T10:40:38.078Z,1019.11
2017-06-21T10:41:39.941Z,1019.07
2017-06-21T10:42:41.813Z,1019.24
2017-06-21T10:43:43.702Z,1019.15
2017-06-21T10:44:45.531Z,1019.11
2017-06-21T10:45:47.328Z,1019.12
2017-06-21T10:46:49.161Z,1019.07
2017-06-21T10:47:50.972Z,1019.13
2017-06-21T10:48:52.796Z,1019.16
2017-06-21T10:50:06.979Z,1019.07
2017-06-21T10:51:08.860Z,1019.08
2017-06-21T10:52:10.730Z,1019.04
2017-06-21T10:53:12.614Z,1019.14
2017-06-21T10:54:14.424Z,1019.13
2017-06-21T10:55:16.250Z,1019.08
2017-06-21T10:56:18.139Z,1019.07
2017-06-21T10:57:20.005Z,1019.04
2017-06-21T10:58:21.874Z,1019.06
2017-06-21T10:59:36.042Z,1019.06
2017-06-21T11:00:37.928Z,1018.98
2017-06-21T11:01:39.795Z,1019.10
2017-06-21T11:02:41.655Z,1019.04
2017-06-21T11:03:43.465Z,1019.06
2017-06-21T11:04:45.288Z,1018.97
2017-06-21T11:05:47.158Z,1019.00
2017-06-21T11:06:49.045Z,1018.98
2017-06-21T11:07:50.912Z,1018.92
2017-06-21T11:09:05.053Z,1018.95
2017-06-21T11:10:06.936Z,1018.94
2017-06-21T11:11:08.798Z,1018.96
2017-06-21T11:12:10.666Z,1019.00
2017-06-21T11:13:12.473Z,1018.89
2017-06-21T11:14:14.283Z,1018.92
2017-06-21T11:15:16.171Z,1018.88
2017-06-21T11:16:18.039Z,1018.93
2017-06-21T11:17:19.909Z,1018.91
2017-06-21T11:18:34.065Z,1018.90
2017-06-21T11:19:36.045Z,1019.02
2017-06-21T11:20:37.974Z,1018.89
2017-06-21T11:21:39.861Z,1018.89
2017-06-21T11:22:41.688Z,1018.90
2017-06-21T11:23:43.520Z,1018.94
2017-06-21T11:24:45.408Z,1018.85
2017-06-21T11:25:47.276Z,1018.77
2017-06-21T11:26:49.151Z,1018.74
2017-06-21T11:28:03.359Z,1018.74
2017-06-21T11:29:05.239Z,1018.78
2017-06-21T11:30:07.109Z,1018.73
2017-06-21T11:31:08.977Z,1018.74
2017-06-21T11:32:10.827Z,1018.73
2017-06-21T11:33:12.629Z,1018.70
2017-06-21T11:34:14.512Z,1018.75
2017-06-21T11:35:16.386Z,1018.79
2017-06-21T11:36:18.253Z,1018.71
2017-06-21T11:37:32.394Z,1018.74
2017-06-21T11:38:34.259Z,1018.67
2017-06-21T11:39:36.132Z,1018.68
2017-06-21T11:40:38.001Z,1018.79
2017-06-21T11:41:39.828Z,1018.79
2017-06-21T11:42:41.634Z,1018.72
2017-06-21T11:43:43.498Z,1018.71
2017-06-21T11:44:45.366Z,1018.77
2017-06-21T11:45:47.233Z,1018.69
2017-06-21T11:47:01.392Z,1018.73
2017-06-21T11:48:03.254Z,1018.64
2017-06-21T11:49:05.127Z,1018.68
2017-06-21T11:50:07.016Z,1018.66
2017-06-21T11:51:08.842Z,1018.63
2017-06-21T11:52:10.667Z,1018.67
2017-06-21T11:53:12.537Z,1018.61
2017-06-21T11:54:14.429Z,1018.61
2017-06-21T11:55:16.316Z,1018.70
2017-06-21T11:56:30.450Z,1018.67
2017-06-21T11:57:32.325Z,1018.66
2017-06-21T11:58:34.210Z,1018.56
2017-06-21T11:59:36.078Z,1018.60
2017-06-21T12:00:37.902Z,1018.59
2017-06-21T12:01:39.712Z,1018.53
2017-06-21T12:02:41.572Z,1018.59
2017-06-21T12:03:43.447Z,1018.60
2017-06-21T12:04:45.327Z,1018.55
2017-06-21T12:05:59.466Z,1018.63
2017-06-21T12:07:01.360Z,1018.62
2017-06-21T12:08:03.247Z,1018.52
2017-06-21T12:09:05.117Z,1018.59
2017-06-21T12:10:06.946Z,1018.59
2017-06-21T12:11:08.774Z,1018.60
2017-06-21T12:12:10.636Z,1018.59
2017-06-21T12:13:12.523Z,1018.52
2017-06-21T12:14:14.394Z,1018.53
2017-06-21T12:15:28.559Z,1018.58
2017-06-21T12:16:30.443Z,1018.59
2017-06-21T12:17:32.315Z,1018.61
2017-06-21T12:18:34.197Z,1018.57
2017-06-21T12:19:36.028Z,1018.60
2017-06-21T12:20:37.833Z,1018.57
2017-06-21T12:21:39.727Z,1018.51
2017-06-21T12:22:41.596Z,1018.56
2017-06-21T12:23:43.482Z,1018.53
2017-06-21T12:24:57.629Z,1018.52
2017-06-21T12:25:59.527Z,1018.52
2017-06-21T12:27:01.422Z,1018.53
2017-06-21T12:28:03.307Z,1018.52
2017-06-21T12:29:05.140Z,1018.57
2017-06-21T12:30:06.936Z,1018.59
2017-06-21T12:31:08.798Z,1018.56
2017-06-21T12:32:10.666Z,1018.51
2017-06-21T12:33:12.539Z,1018.52
2017-06-21T12:34:26.696Z,1018.44
2017-06-21T12:35:28.567Z,1018.45
2017-06-21T12:36:30.458Z,1018.45
2017-06-21T12:37:32.349Z,1018.53
2017-06-21T12:38:34.149Z,1018.55
2017-06-21T12:39:35.962Z,1018.61
2017-06-21T12:40:37.852Z,1018.55
2017-06-21T12:41:39.745Z,1018.57
2017-06-21T12:42:41.604Z,1018.55
2017-06-21T12:43:55.743Z,1018.55
2017-06-21T12:44:57.612Z,1018.51
2017-06-21T12:45:59.481Z,1018.46